Time;durP1;ratioP1;P1;durP2;ratioP2;P2;SDS_P1;SDS_P2;PMS_P1;PMS_P2;Temp;Humidity;BMP_temperature;BMP_pressure;BME280_temperature;BME280_humidity;BME280_pressure;Samples;Min_cycle;Max_cycle;Signal;HPM_P1;HPM_P2
2023/01/04 00:01:44;;;;;;;;;;;;;;;;;;5057532;28;20026;-25
2023/01/04 00:04:10;;;;;;;;;;;;;;;;;;5057413;28;19924;-27
2023/01/04 00:06:36;;;;;;;;;;;;;;;;;;5057828;28;19913;-29
2023/01/04 00:09:02;;;;;;;;;;;;;;;;;;5057705;28;19913;-31
2023/01/04 00:11:28;;;;;;;;;;;;;;;;;;5057408;28;19913;-32
2023/01/04 00:13:54;;;;;;;;;;;;;;;;;;5056310;28;19913;-27
2023/01/04 00:16:20;;;;;;;;;;;;;;;;;;5057647;28;20007;-35
2023/01/04 00:18:46;;;;;;;;;;;;;;;;;;5057358;28;19944;-32
2023/01/04 00:21:12;;;;;;;;;;;;;;;;;;5057595;28;19912;-29
2023/01/04 00:23:38;;;;;;;;;;;;;;;;;;5056209;28;19913;-27
2023/01/04 00:26:04;;;;;;;;;;;;;;;;;;5057473;28;20033;-26
2023/01/04 00:28:30;;;;;;;;;;;;;;;;;;5057095;28;19909;-28
2023/01/04 00:30:56;;;;;;;;;;;;;;;;;;5056068;28;19913;-30
2023/01/04 00:33:22;;;;;;;;;;;;;;;;;;5057038;28;19969;-31
2023/01/04 00:35:48;;;;;;;;;;;;;;;;;;5057232;28;19944;-26
2023/01/04 00:38:14;;;;;;;;;;;;;;;;;;5057033;28;19952;-31
2023/01/04 00:40:40;;;;;;;;;;;;;;;;;;5056877;28;19912;-31
2023/01/04 00:43:06;;;;;;;;;;;;;;;;;;5056815;28;19909;-27
2023/01/04 00:45:32;;;;;;;;;;;;;;;;;;5056779;28;19913;-31
2023/01/04 00:47:58;;;;;;;;;;;;;;;;;;5057083;28;20342;-27
2023/01/04 00:50:24;;;;;;;;;;;;;;;;;;5056642;28;20328;-27
2023/01/04 00:52:50;;;;;;;;;;;;;;;;;;5056907;28;19956;-31
2023/01/04 00:55:16;;;;;;;;;;;;;;;;;;5056642;28;19920;-32
2023/01/04 00:57:42;;;;;;;;;;;;;;;;;;5056637;28;19908;-31
2023/01/04 01:00:07;;;;;;;;;;;;;;;;;;5056668;28;19917;-33
2023/01/04 01:02:33;;;;;;;;;;;;;;;;;;5056512;28;19913;-26
2023/01/04 01:04:59;;;;;;;;;;;;;;;;;;5056336;28;19947;-27
2023/01/04 01:07:25;;;;;;;;;;;;;;;;;;5056402;28;19913;-27
2023/01/04 01:09:51;;;;;;;;;;;;;;;;;;5056563;28;19913;-31
2023/01/04 01:12:17;;;;;;;;;;;;;;;;;;5056523;28;20298;-27
2023/01/04 01:14:43;;;;;;;;;;;;;;;;;;5056240;28;19913;-31
2023/01/04 01:17:09;;;;;;;;;;;;;;;;;;5056254;28;19909;-29
2023/01/04 01:19:35;;;;;;;;;;;;;;;;;;5056210;28;19912;-30
2023/01/04 01:22:01;;;;;;;;;;;;;;;;;;5056307;28;20348;-27
2023/01/04 01:24:27;;;;;;;;;;;;;;;;;;5056050;28;19913;-26
2023/01/04 01:26:54;;;;;;;;;;;;;;;;;;5055972;28;20340;-26
2023/01/04 01:29:20;;;;;;;;;;;;;;;;;;5055954;28;19923;-34
2023/01/04 01:31:46;;;;;;;;;;;;;;;;;;5056244;28;19968;-32
2023/01/04 01:34:12;;;;;;;;;;;;;;;;;;5055968;28;20007;-27
2023/01/04 01:36:38;;;;;;;;;;;;;;;;;;5055896;28;19912;-27
2023/01/04 01:39:04;;;;;;;;;;;;;;;;;;5056098;28;19999;-31
2023/01/04 01:41:30;;;;;;;;;;;;;;;;;;5055787;28;19924;-29
2023/01/04 01:43:56;;;;;;;;;;;;;;;;;;5055696;28;19913;-32
2023/01/04 01:46:22;;;;;;;;;;;;;;;;;;5055667;28;19913;-27
2023/01/04 01:48:48;;;;;;;;;;;;;;;;;;5055866;28;19912;-28
2023/01/04 01:51:14;;;;;;;;;;;;;;;;;;5055821;28;19916;-26
2023/01/04 01:53:40;;;;;;;;;;;;;;;;;;5055497;28;20363;-26
2023/01/04 01:56:06;;;;;;;;;;;;;;;;;;5055587;28;20413;-29
2023/01/04 01:58:32;;;;;;;;;;;;;;;;;;5055472;28;19913;-34
2023/01/04 02:00:58;;;;;;;;;;;;;;;;;;5055613;28;19912;-32
2023/01/04 02:03:24;;;;;;;;;;;;;;;;;;5055079;28;19920;-29
2023/01/04 02:05:50;;;;;;;;;;;;;;;;;;5055558;28;19924;-30
2023/01/04 02:08:16;;;;;;;;;;;;;;;;;;5055169;28;19992;-27
2023/01/04 02:10:42;;;;;;;;;;;;;;;;;;5055214;28;19923;-29
2023/01/04 02:13:08;;;;;;;;;;;;;;;;;;5055415;28;19915;-31
2023/01/04 02:15:34;;;;;;;;;;;;;;;;;;5055247;28;20372;-27
2023/01/04 02:17:59;;;;;;;;;;;;;;;;;;5054181;28;19967;-31
2023/01/04 02:20:25;;;;;;;;;;;;;;;;;;5055110;28;20328;-31
2023/01/04 02:22:51;;;;;;;;;;;;;;;;;;5055271;28;19913;-31
2023/01/04 02:25:17;;;;;;;;;;;;;;;;;;5054980;28;20355;-29
2023/01/04 02:27:43;;;;;;;;;;;;;;;;;;5054965;28;19912;-26
2023/01/04 02:30:09;;;;;;;;;;;;;;;;;;5055052;28;20003;-28
2023/01/04 02:32:35;;;;;;;;;;;;;;;;;;5054743;28;19951;-31
2023/01/04 02:35:01;;;;;;;;;;;;;;;;;;5054780;28;20237;-31
2023/01/04 02:37:27;;;;;;;;;;;;;;;;;;5054997;28;19919;-30
2023/01/04 02:39:53;;;;;;;;;;;;;;;;;;5054771;28;19975;-29
2023/01/04 02:42:19;;;;;;;;;;;;;;;;;;5053656;28;20397;-28
2023/01/04 02:44:56;;;;;;;;;;;;;;;;;;5054987;28;19917;-31
2023/01/04 02:50:29;;;;;;;;;;;;;;;;;;5055010;28;19913;-25
2023/01/04 02:52:52;;;;;;;;;;;;;;;;;;5054744;28;19970;-28
2023/01/04 02:55:18;;;;;;;;;;;;;;;;;;5054841;28;19923;-27
2023/01/04 02:57:44;;;;;;;;;;;;;;;;;;5054548;28;19917;-31
2023/01/04 03:00:10;;;;;;;;;;;;;;;;;;5054742;28;19920;-28
2023/01/04 03:08:06;;;;;;;;;;;;;;;;;;5054517;28;20008;-29
2023/01/04 03:10:32;;;;;;;;;;;;;;;;;;5054622;28;19940;-29
2023/01/04 03:12:58;;;;;;;;;;;;;;;;;;5054302;28;19909;-27
2023/01/04 03:15:24;;;;;;;;;;;;;;;;;;5054662;28;19917;-26
2023/01/04 03:17:50;;;;;;;;;;;;;;;;;;5053355;28;20007;-34
2023/01/04 03:20:16;;;;;;;;;;;;;;;;;;5055860;28;19924;-26
2023/01/04 03:36:25;;;;;;;;;;;;;;;;;;5058263;28;19920;-28
2023/01/04 03:49:50;;;;;;;;;;;;;;;;;;5058227;28;20353;-25
2023/01/04 03:52:16;;;;;;;;;;;;;;;;;;5057757;28;19912;-29
2023/01/04 03:54:42;;;;;;;;;;;;;;;;;;5057860;28;19909;-29
2023/01/04 03:57:08;;;;;;;;;;;;;;;;;;5057789;28;19913;-26
2023/01/04 03:59:34;;;;;;;;;;;;;;;;;;5058038;28;20413;-28
2023/01/04 04:02:01;;;;;;;;;;;;;;;;;;5056684;28;19913;-30
2023/01/04 04:09:56;;;;;;;;;;;;;;;;;;5057861;28;19978;-28
2023/01/04 04:12:22;;;;;;;;;;;;;;;;;;5057405;28;19917;-32
2023/01/04 04:14:48;;;;;;;;;;;;;;;;;;5057410;28;20240;-29
2023/01/04 04:17:14;;;;;;;;;;;;;;;;;;5057873;28;19917;-32
2023/01/04 04:19:40;;;;;;;;;;;;;;;;;;5057338;28;19908;-31
2023/01/04 04:22:06;;;;;;;;;;;;;;;;;;5057468;28;19924;-30
2023/01/04 04:24:32;;;;;;;;;;;;;;;;;;5057484;28;19909;-27
2023/01/04 04:26:58;;;;;;;;;;;;;;;;;;5057107;28;20363;-27
2023/01/04 04:29:24;;;;;;;;;;;;;;;;;;5057073;28;19917;-28
2023/01/04 04:31:50;;;;;;;;;;;;;;;;;;5056825;28;19917;-31
2023/01/04 04:34:16;;;;;;;;;;;;;;;;;;5057787;28;19913;-28
2023/01/04 04:36:42;;;;;;;;;;;;;;;;;;5056960;28;19923;-29
2023/01/04 04:39:08;;;;;;;;;;;;;;;;;;5056036;28;20236;-27
2023/01/04 04:41:37;;;;;;;;;;;;;;;;;;5057174;28;20003;-28
2023/01/04 04:44:03;;;;;;;;;;;;;;;;;;5056690;28;19982;-27
2023/01/04 04:46:29;;;;;;;;;;;;;;;;;;5056787;28;19936;-26
2023/01/04 04:48:55;;;;;;;;;;;;;;;;;;5056860;28;19964;-31
2023/01/04 04:51:21;;;;;;;;;;;;;;;;;;5056949;28;19920;-24
2023/01/04 04:53:47;;;;;;;;;;;;;;;;;;5056828;28;19961;-27
2023/01/04 04:56:13;;;;;;;;;;;;;;;;;;5056476;28;19920;-29
2023/01/04 04:58:39;;;;;;;;;;;;;;;;;;5056457;28;19915;-26
2023/01/04 05:01:05;;;;;;;;;;;;;;;;;;5056342;28;19913;-29
2023/01/04 05:03:31;;;;;;;;;;;;;;;;;;5056053;28;19943;-27
2023/01/04 05:05:57;;;;;;;;;;;;;;;;;;5056563;28;19913;-27
2023/01/04 05:08:23;;;;;;;;;;;;;;;;;;5056318;28;19940;-28
2023/01/04 05:10:49;;;;;;;;;;;;;;;;;;5056073;28;19916;-30
2023/01/04 05:13:15;;;;;;;;;;;;;;;;;;5055700;28;19978;-33
2023/01/04 05:15:41;;;;;;;;;;;;;;;;;;5055488;28;19913;-29
2023/01/04 05:18:07;;;;;;;;;;;;;;;;;;5056063;28;19909;-26
2023/01/04 05:20:33;;;;;;;;;;;;;;;;;;5056124;28;19912;-29
2023/01/04 05:22:59;;;;;;;;;;;;;;;;;;5055815;28;19961;-28
2023/01/04 05:25:25;;;;;;;;;;;;;;;;;;5054820;28;19913;-26
2023/01/04 05:27:51;;;;;;;;;;;;;;;;;;5055948;28;20386;-26
2023/01/04 05:33:02;;;;;;;;;;;;;;;;;;5055706;28;19924;-25
2023/01/04 05:35:28;;;;;;;;;;;;;;;;;;5054738;28;20259;-28
2023/01/04 05:37:54;;;;;;;;;;;;;;;;;;5055734;28;19931;-24
2023/01/04 05:40:20;;;;;;;;;;;;;;;;;;5055519;28;19992;-30
2023/01/04 05:42:46;;;;;;;;;;;;;;;;;;5054702;28;20002;-32
2023/01/04 05:45:12;;;;;;;;;;;;;;;;;;5055798;28;20315;-28
2023/01/04 05:47:38;;;;;;;;;;;;;;;;;;5055602;28;20232;-27
2023/01/04 05:50:04;;;;;;;;;;;;;;;;;;5055294;28;20071;-30
2023/01/04 05:52:30;;;;;;;;;;;;;;;;;;5055343;28;19931;-30
2023/01/04 05:54:56;;;;;;;;;;;;;;;;;;5055291;28;19912;-29
2023/01/04 05:57:22;;;;;;;;;;;;;;;;;;5055290;28;19920;-28
2023/01/04 05:59:48;;;;;;;;;;;;;;;;;;5055292;28;19909;-27
2023/01/04 06:02:14;;;;;;;;;;;;;;;;;;5055233;28;19952;-29
2023/01/04 06:04:40;;;;;;;;;;;;;;;;;;5054994;28;20287;-27
2023/01/04 06:07:06;;;;;;;;;;;;;;;;;;5055190;28;19909;-26
2023/01/04 06:09:32;;;;;;;;;;;;;;;;;;5055369;28;20361;-26
2023/01/04 06:11:57;;;;;;;;;;;;;;;;;;5054768;28;19916;-25
2023/01/04 06:14:23;;;;;;;;;;;;;;;;;;5053568;28;20338;-29
2023/01/04 06:16:50;;;;;;;;;;;;;;;;;;5054108;28;20244;-25
2023/01/04 06:19:15;;;;;;;;;;;;;;;;;;5054472;28;19923;-26
2023/01/04 06:21:41;;;;;;;;;;;;;;;;;;5054937;28;19913;-31
2023/01/04 06:24:07;;;;;;;;;;;;;;;;;;5054724;28;19940;-29
2023/01/04 06:26:33;;;;;;;;;;;;;;;;;;5054831;28;19912;-28
2023/01/04 06:28:59;;;;;;;;;;;;;;;;;;5054575;28;20384;-26
2023/01/04 06:31:25;;;;;;;;;;;;;;;;;;5054814;28;19909;-34
2023/01/04 06:33:51;;;;;;;;;;;;;;;;;;5054464;28;20255;-27
2023/01/04 06:36:17;;;;;;;;;;;;;;;;;;5054655;28;19912;-30
2023/01/04 06:38:43;;;;;;;;;;;;;;;;;;5054689;28;19966;-31
2023/01/04 06:41:09;;;;;;;;;;;;;;;;;;5054293;28;19991;-29
2023/01/04 06:43:35;;;;;;;;;;;;;;;;;;5054396;28;19908;-30
2023/01/04 06:46:02;;;;;;;;;;;;;;;;;;5054345;28;19920;-28
2023/01/04 06:48:28;;;;;;;;;;;;;;;;;;5053176;28;19909;-24
2023/01/04 06:50:54;;;;;;;;;;;;;;;;;;5053056;28;20359;-27
2023/01/04 06:53:20;;;;;;;;;;;;;;;;;;5054527;28;19920;-28
2023/01/04 06:55:46;;;;;;;;;;;;;;;;;;5053987;28;20004;-29
2023/01/04 06:58:12;;;;;;;;;;;;;;;;;;5054294;28;19919;-25
2023/01/04 07:00:38;;;;;;;;;;;;;;;;;;5054172;28;20035;-30
2023/01/04 07:03:04;;;;;;;;;;;;;;;;;;5054159;28;19913;-31
2023/01/04 07:05:30;;;;;;;;;;;;;;;;;;5053976;28;20267;-27
2023/01/04 07:07:58;;;;;;;;;;;;;;;;;;5053837;28;20212;-29
2023/01/04 07:10:24;;;;;;;;;;;;;;;;;;5054091;28;20485;-27
2023/01/04 07:12:50;;;;;;;;;;;;;;;;;;5054070;28;19916;-28
2023/01/04 07:15:16;;;;;;;;;;;;;;;;;;5053717;28;19960;-31
2023/01/04 07:17:42;;;;;;;;;;;;;;;;;;5053414;28;19909;-30
2023/01/04 07:20:08;;;;;;;;;;;;;;;;;;5053410;28;19912;-29
2023/01/04 07:22:34;;;;;;;;;;;;;;;;;;5053394;28;19909;-25
2023/01/04 07:24:59;;;;;;;;;;;;;;;;;;5053424;28;19924;-26
2023/01/04 07:27:25;;;;;;;;;;;;;;;;;;5053559;28;19913;-28
2023/01/04 07:29:51;;;;;;;;;;;;;;;;;;5052200;28;20007;-31
2023/01/04 07:32:17;;;;;;;;;;;;;;;;;;5053135;28;19912;-33
2023/01/04 07:34:43;;;;;;;;;;;;;;;;;;5053108;28;19908;-29
2023/01/04 07:37:10;;;;;;;;;;;;;;;;;;5053542;28;19956;-27
2023/01/04 07:39:36;;;;;;;;;;;;;;;;;;5053828;28;19923;-27
2023/01/04 07:42:01;;;;;;;;;;;;;;;;;;5053790;28;20014;-27
2023/01/04 07:44:28;;;;;;;;;;;;;;;;;;5052826;28;20308;-33
2023/01/04 07:46:54;;;;;;;;;;;;;;;;;;5054324;28;20190;-26
2023/01/04 07:49:20;;;;;;;;;;;;;;;;;;5054213;28;19939;-28
2023/01/04 07:51:46;;;;;;;;;;;;;;;;;;5053851;28;19916;-26
2023/01/04 07:54:12;;;;;;;;;;;;;;;;;;5052974;28;19908;-27
2023/01/04 07:56:38;;;;;;;;;;;;;;;;;;5054213;28;19912;-33
2023/01/04 07:59:05;;;;;;;;;;;;;;;;;;5053840;28;19909;-29
2023/01/04 08:01:31;;;;;;;;;;;;;;;;;;5052727;28;19913;-25
2023/01/04 08:03:57;;;;;;;;;;;;;;;;;;5053681;28;19928;-28
2023/01/04 08:06:23;;;;;;;;;;;;;;;;;;5055434;28;20003;-30
2023/01/04 08:08:48;;;;;;;;;;;;;;;;;;5057202;28;20008;-27
2023/01/04 08:11:14;;;;;;;;;;;;;;;;;;5057619;28;19917;-31
2023/01/04 08:13:40;;;;;;;;;;;;;;;;;;5057034;28;20236;-31
2023/01/04 08:16:06;;;;;;;;;;;;;;;;;;5057373;28;19913;-31
2023/01/04 08:18:32;;;;;;;;;;;;;;;;;;5057221;28;19909;-28
2023/01/04 08:20:58;;;;;;;;;;;;;;;;;;5056954;28;19913;-29
2023/01/04 08:23:24;;;;;;;;;;;;;;;;;;5056798;28;19917;-25
2023/01/04 08:25:50;;;;;;;;;;;;;;;;;;5056716;28;19912;-29
2023/01/04 08:28:16;;;;;;;;;;;;;;;;;;5056897;28;19966;-27
2023/01/04 08:30:42;;;;;;;;;;;;;;;;;;5055675;28;19917;-27
2023/01/04 08:33:08;;;;;;;;;;;;;;;;;;5056923;28;19908;-32
2023/01/04 08:35:34;;;;;;;;;;;;;;;;;;5057239;28;19916;-29
2023/01/04 08:38:00;;;;;;;;;;;;;;;;;;5056944;28;19923;-28
2023/01/04 08:40:26;;;;;;;;;;;;;;;;;;5057087;28;19928;-29
2023/01/04 08:42:52;;;;;;;;;;;;;;;;;;5057110;28;19914;-28
2023/01/04 08:45:18;;;;;;;;;;;;;;;;;;5057015;28;20243;-25
2023/01/04 08:47:44;;;;;;;;;;;;;;;;;;5056522;28;19916;-31
2023/01/04 08:50:10;;;;;;;;;;;;;;;;;;5056363;28;19919;-28
2023/01/04 08:52:36;;;;;;;;;;;;;;;;;;5056020;28;19913;-33
2023/01/04 08:55:02;;;;;;;;;;;;;;;;;;5056395;28;19974;-28
2023/01/04 08:57:28;;;;;;;;;;;;;;;;;;5056547;28;20089;-28
2023/01/04 08:59:54;;;;;;;;;;;;;;;;;;5056325;28;19913;-26
2023/01/04 09:02:20;;;;;;;;;;;;;;;;;;5055166;28;19912;-26
2023/01/04 09:04:46;;;;;;;;;;;;;;;;;;5055898;28;19948;-31
2023/01/04 09:07:12;;;;;;;;;;;;;;;;;;5055434;28;19931;-29
2023/01/04 09:09:38;;;;;;;;;;;;;;;;;;5056197;28;19917;-25
2023/01/04 09:12:04;;;;;;;;;;;;;;;;;;5055937;28;19923;-28
2023/01/04 09:14:30;;;;;;;;;;;;;;;;;;5056351;28;19913;-28
2023/01/04 09:16:56;;;;;;;;;;;;;;;;;;5055529;28;19909;-29
2023/01/04 09:19:22;;;;;;;;;;;;;;;;;;5055254;28;19974;-27
2023/01/04 09:21:48;;;;;;;;;;;;;;;;;;5055872;28;19913;-25
2023/01/04 09:24:14;;;;;;;;;;;;;;;;;;5055708;28;19956;-35
2023/01/04 09:26:40;;;;;;;;;;;;;;;;;;5055963;28;19913;-29
2023/01/04 09:29:06;;;;;;;;;;;;;;;;;;5055645;28;20216;-28
2023/01/04 09:31:32;;;;;;;;;;;;;;;;;;5055901;28;19924;-28
2023/01/04 09:33:58;;;;;;;;;;;;;;;;;;5055626;28;19916;-27
2023/01/04 09:36:24;;;;;;;;;;;;;;;;;;5055585;28;19916;-29
2023/01/04 09:38:51;;;;;;;;;;;;;;;;;;5055780;28;19948;-25
2023/01/04 09:41:17;;;;;;;;;;;;;;;;;;5054292;28;19913;-26
2023/01/04 09:43:43;;;;;;;;;;;;;;;;;;5054944;28;19909;-31
2023/01/04 09:46:09;;;;;;;;;;;;;;;;;;5054230;28;19995;-29
2023/01/04 09:48:35;;;;;;;;;;;;;;;;;;5054688;28;19924;-28
2023/01/04 09:51:01;;;;;;;;;;;;;;;;;;5054637;28;19912;-30
2023/01/04 09:53:27;;;;;;;;;;;;;;;;;;5054516;28;19962;-29
2023/01/04 09:55:53;;;;;;;;;;;;;;;;;;5054859;28;19919;-30
2023/01/04 09:58:19;;;;;;;;;;;;;;;;;;5054393;28;20008;-34
2023/01/04 10:00:45;;;;;;;;;;;;;;;;;;5054422;28;19952;-28
2023/01/04 10:03:11;;;;;;;;;;;;;;;;;;5054109;28;20309;-26
2023/01/04 10:05:37;;;;;;;;;;;;;;;;;;5054254;28;19971;-27
2023/01/04 10:08:03;;;;;;;;;;;;;;;;;;5054262;28;19908;-32
2023/01/04 10:10:29;;;;;;;;;;;;;;;;;;5053034;28;19921;-32
2023/01/04 10:12:55;;;;;;;;;;;;;;;;;;5053696;28;19912;-31
2023/01/04 10:15:21;;;;;;;;;;;;;;;;;;5054168;28;19981;-32
2023/01/04 10:17:47;;;;;;;;;;;;;;;;;;5052904;28;20302;-29
2023/01/04 10:20:13;;;;;;;;;;;;;;;;;;5054286;28;19921;-25
2023/01/04 10:22:39;;;;;;;;;;;;;;;;;;5053025;28;19920;-33
2023/01/04 10:25:05;;;;;;;;;;;;;;;;;;5053199;28;19908;-30
2023/01/04 10:27:31;;;;;;;;;;;;;;;;;;5054627;28;20007;-28
2023/01/04 10:29:57;;;;;;;;;;;;;;;;;;5054467;28;19971;-27
2023/01/04 10:32:23;;;;;;;;;;;;;;;;;;5054384;28;20312;-30
2023/01/04 10:34:49;;;;;;;;;;;;;;;;;;5054488;28;20368;-29
2023/01/04 10:37:15;;;;;;;;;;;;;;;;;;5054143;28;20261;-29
2023/01/04 10:39:41;;;;;;;;;;;;;;;;;;5054300;28;20327;-29
2023/01/04 10:42:07;;;;;;;;;;;;;;;;;;5054259;28;19927;-28
2023/01/04 10:44:33;;;;;;;;;;;;;;;;;;5054387;28;19934;-27
2023/01/04 10:46:59;;;;;;;;;;;;;;;;;;5054620;28;19966;-29
2023/01/04 10:49:25;;;;;;;;;;;;;;;;;;5053349;28;19982;-27
2023/01/04 10:51:51;;;;;;;;;;;;;;;;;;5052805;28;19919;-23
2023/01/04 10:54:17;;;;;;;;;;;;;;;;;;5054319;28;19936;-27
2023/01/04 10:56:44;;;;;;;;;;;;;;;;;;5054351;28;20328;-23
2023/01/04 10:59:10;;;;;;;;;;;;;;;;;;5053769;28;19909;-26
2023/01/04 11:01:36;;;;;;;;;;;;;;;;;;5053783;28;19966;-26
2023/01/04 11:04:02;;;;;;;;;;;;;;;;;;5052577;28;19928;-28
2023/01/04 11:06:28;;;;;;;;;;;;;;;;;;5054442;28;19936;-29
2023/01/04 11:08:54;;;;;;;;;;;;;;;;;;5054288;28;20338;-27
2023/01/04 11:11:20;;;;;;;;;;;;;;;;;;5054368;28;19920;-30
2023/01/04 11:13:46;;;;;;;;;;;;;;;;;;5054431;28;20331;-27
2023/01/04 11:16:12;;;;;;;;;;;;;;;;;;5054177;28;19913;-27
2023/01/04 11:18:38;;;;;;;;;;;;;;;;;;5054426;28;19913;-24
2023/01/04 11:21:04;;;;;;;;;;;;;;;;;;5054538;28;20371;-30
2023/01/04 11:23:30;;;;;;;;;;;;;;;;;;5054995;28;19909;-25
2023/01/04 11:25:56;;;;;;;;;;;;;;;;;;5054412;28;20023;-27
2023/01/04 11:28:22;;;;;;;;;;;;;;;;;;5053878;28;20267;-25
2023/01/04 11:30:48;;;;;;;;;;;;;;;;;;5052598;28;19917;-33
2023/01/04 11:33:14;;;;;;;;;;;;;;;;;;5053873;28;19915;-27
2023/01/04 11:35:40;;;;;;;;;;;;;;;;;;5054134;28;20243;-27
2023/01/04 11:38:06;;;;;;;;;;;;;;;;;;5054112;28;19913;-28
2023/01/04 11:40:32;;;;;;;;;;;;;;;;;;5053701;28;20343;-29
2023/01/04 11:42:58;;;;;;;;;;;;;;;;;;5057412;28;19995;-27
2023/01/04 11:45:24;;;;;;;;;;;;;;;;;;5057834;28;20356;-25
2023/01/04 11:47:50;;;;;;;;;;;;;;;;;;5057792;28;19916;-25
2023/01/04 11:50:16;;;;;;;;;;;;;;;;;;5057584;28;19927;-30
2023/01/04 11:52:44;;;;;;;;;;;;;;;;;;5057634;28;20387;-28
2023/01/04 11:55:10;;;;;;;;;;;;;;;;;;5057603;28;20290;-29
2023/01/04 11:57:36;;;;;;;;;;;;;;;;;;5057545;28;19913;-26
2023/01/04 12:00:02;;;;;;;;;;;;;;;;;;5057272;28;20365;-28
2023/01/04 12:02:28;;;;;;;;;;;;;;;;;;5056554;28;19920;-28
2023/01/04 12:04:54;;;;;;;;;;;;;;;;;;5056575;28;19932;-28
2023/01/04 12:07:20;;;;;;;;;;;;;;;;;;5055727;28;19920;-29
2023/01/04 12:09:46;;;;;;;;;;;;;;;;;;5056563;28;20343;-25
2023/01/04 12:12:12;;;;;;;;;;;;;;;;;;5056865;28;19935;-29
2023/01/04 12:14:38;;;;;;;;;;;;;;;;;;5056485;28;20006;-25
2023/01/04 12:17:04;;;;;;;;;;;;;;;;;;5055514;28;19913;-27
2023/01/04 12:19:30;;;;;;;;;;;;;;;;;;5055561;28;20003;-25
2023/01/04 12:21:56;;;;;;;;;;;;;;;;;;5056657;28;19909;-27
2023/01/04 12:24:22;;;;;;;;;;;;;;;;;;5055885;28;19960;-33
2023/01/04 12:26:48;;;;;;;;;;;;;;;;;;5056516;28;19940;-33
2023/01/04 12:29:14;;;;;;;;;;;;;;;;;;5055414;28;19978;-29
2023/01/04 12:31:40;;;;;;;;;;;;;;;;;;5056347;28;20348;-27
2023/01/04 12:34:06;;;;;;;;;;;;;;;;;;5056401;28;19959;-25
2023/01/04 12:36:32;;;;;;;;;;;;;;;;;;5057012;28;20398;-26
2023/01/04 12:38:58;;;;;;;;;;;;;;;;;;5056721;28;19909;-24
2023/01/04 12:41:24;;;;;;;;;;;;;;;;;;5056790;28;19967;-31
2023/01/04 12:43:52;;;;;;;;;;;;;;;;;;5056575;28;19974;-26
2023/01/04 12:49:02;;;;;;;;;;;;;;;;;;5056577;28;19958;-29
2023/01/04 12:49:04;;;;;;;;;;;;;;;;;;5056368;28;19909;-29
2023/01/04 12:51:29;;;;;;;;;;;;;;;;;;5056059;28;19913;-24
2023/01/04 12:53:56;;;;;;;;;;;;;;;;;;5056440;28;19908;-28
2023/01/04 12:56:22;;;;;;;;;;;;;;;;;;5056530;28;19923;-37
2023/01/04 12:58:47;;;;;;;;;;;;;;;;;;5056061;28;20004;-26
2023/01/04 13:01:13;;;;;;;;;;;;;;;;;;5054795;28;19916;-33
2023/01/04 13:03:39;;;;;;;;;;;;;;;;;;5055540;28;20336;-28
2023/01/04 13:06:06;;;;;;;;;;;;;;;;;;5054681;28;19955;-28
2023/01/04 13:08:32;;;;;;;;;;;;;;;;;;5055615;28;20027;-26
2023/01/04 13:10:58;;;;;;;;;;;;;;;;;;5055660;28;20035;-32
2023/01/04 13:13:24;;;;;;;;;;;;;;;;;;5055892;28;19913;-29
2023/01/04 13:15:50;;;;;;;;;;;;;;;;;;5056014;28;19916;-30
2023/01/04 13:18:16;;;;;;;;;;;;;;;;;;5055000;28;20271;-27
2023/01/04 13:20:42;;;;;;;;;;;;;;;;;;5055948;28;20494;-31
2023/01/04 13:23:08;;;;;;;;;;;;;;;;;;5056098;28;19909;-30
2023/01/04 13:25:35;;;;;;;;;;;;;;;;;;5054388;28;19912;-28
2023/01/04 13:28:01;;;;;;;;;;;;;;;;;;5055729;28;19981;-30
2023/01/04 13:30:27;;;;;;;;;;;;;;;;;;5054426;28;19979;-31
2023/01/04 13:32:53;;;;;;;;;;;;;;;;;;5055406;28;19927;-26
2023/01/04 13:35:19;;;;;;;;;;;;;;;;;;5055510;28;19956;-31
2023/01/04 13:37:45;;;;;;;;;;;;;;;;;;5055665;28;19923;-27
2023/01/04 13:40:11;;;;;;;;;;;;;;;;;;5055545;28;19913;-27
2023/01/04 13:42:37;;;;;;;;;;;;;;;;;;5055413;28;19908;-28
2023/01/04 13:45:03;;;;;;;;;;;;;;;;;;5055365;28;19924;-33
2023/01/04 13:47:29;;;;;;;;;;;;;;;;;;5055548;28;19935;-30
2023/01/04 13:49:55;;;;;;;;;;;;;;;;;;5055405;28;19920;-25
2023/01/04 13:52:21;;;;;;;;;;;;;;;;;;5055346;28;19928;-27
2023/01/04 13:54:47;;;;;;;;;;;;;;;;;;5055325;28;20324;-29
2023/01/04 13:57:13;;;;;;;;;;;;;;;;;;5054985;28;19912;-24
2023/01/04 13:59:39;;;;;;;;;;;;;;;;;;5054453;28;19913;-29
2023/01/04 14:02:05;;;;;;;;;;;;;;;;;;5054882;28;19978;-28
2023/01/04 14:04:32;;;;;;;;;;;;;;;;;;5054497;28;19928;-30
2023/01/04 14:06:58;;;;;;;;;;;;;;;;;;5055268;28;19912;-27
2023/01/04 14:09:24;;;;;;;;;;;;;;;;;;5055136;28;20015;-27
2023/01/04 14:12:02;;;;;;;;;;;;;;;;;;5055251;28;19971;-32
2023/01/04 14:14:29;;;;;;;;;;;;;;;;;;5053785;28;20201;-28
2023/01/04 14:16:55;;;;;;;;;;;;;;;;;;5054921;28;19917;-30
2023/01/04 14:19:21;;;;;;;;;;;;;;;;;;5055030;28;19920;-28
2023/01/04 14:21:48;;;;;;;;;;;;;;;;;;5054571;28;20355;-26
2023/01/04 14:24:14;;;;;;;;;;;;;;;;;;5054688;28;19920;-30
2023/01/04 14:26:42;;;;;;;;;;;;;;;;;;5054541;28;19913;-25
2023/01/04 14:29:08;;;;;;;;;;;;;;;;;;5054783;28;19909;-28
2023/01/04 14:31:34;;;;;;;;;;;;;;;;;;5054795;28;19917;-30
2023/01/04 14:34:00;;;;;;;;;;;;;;;;;;5054561;28;19909;-27
2023/01/04 14:36:27;;;;;;;;;;;;;;;;;;5054449;28;19924;-28
2023/01/04 14:38:53;;;;;;;;;;;;;;;;;;5054261;28;19909;-25
2023/01/04 14:41:19;;;;;;;;;;;;;;;;;;5054613;28;20383;-28
2023/01/04 14:43:45;;;;;;;;;;;;;;;;;;5053145;28;19913;-31
2023/01/04 14:46:11;;;;;;;;;;;;;;;;;;5055143;28;19920;-29
2023/01/04 14:48:37;;;;;;;;;;;;;;;;;;5054232;28;19999;-24
2023/01/04 14:51:03;;;;;;;;;;;;;;;;;;5054380;28;19917;-26
2023/01/04 14:53:29;;;;;;;;;;;;;;;;;;5053371;28;19920;-25
2023/01/04 14:55:55;;;;;;;;;;;;;;;;;;5054380;28;20382;-25
2023/01/04 14:58:21;;;;;;;;;;;;;;;;;;5054290;28;19912;-26
2023/01/04 15:00:47;;;;;;;;;;;;;;;;;;5054108;28;20244;-28
2023/01/04 15:03:13;;;;;;;;;;;;;;;;;;5054007;28;19916;-29
2023/01/04 15:05:39;;;;;;;;;;;;;;;;;;5054129;28;20367;-31
2023/01/04 15:08:05;;;;;;;;;;;;;;;;;;5054170;28;20000;-28
2023/01/04 15:10:31;;;;;;;;;;;;;;;;;;5054380;28;20011;-25
2023/01/04 15:12:59;;;;;;;;;;;;;;;;;;5054415;28;20305;-25
2023/01/04 15:15:25;;;;;;;;;;;;;;;;;;5055420;28;19917;-30
2023/01/04 15:17:51;;;;;;;;;;;;;;;;;;5057961;28;20145;-26
2023/01/04 15:20:17;;;;;;;;;;;;;;;;;;5057971;28;19912;-28
2023/01/04 15:22:43;;;;;;;;;;;;;;;;;;5057647;28;19920;-28
2023/01/04 15:25:09;;;;;;;;;;;;;;;;;;5056695;28;19909;-31
2023/01/04 15:27:35;;;;;;;;;;;;;;;;;;5057921;28;20335;-24
2023/01/04 15:30:01;;;;;;;;;;;;;;;;;;5057765;28;19920;-27
2023/01/04 15:32:27;;;;;;;;;;;;;;;;;;5056534;28;19931;-25
2023/01/04 15:34:53;;;;;;;;;;;;;;;;;;5057866;28;19971;-27
2023/01/04 15:37:22;;;;;;;;;;;;;;;;;;5057892;28;20251;-24
2023/01/04 15:39:48;;;;;;;;;;;;;;;;;;5057817;28;20007;-28
2023/01/04 15:44:58;;;;;;;;;;;;;;;;;;5057551;28;19920;-26
2023/01/04 15:47:24;;;;;;;;;;;;;;;;;;5057385;28;20343;-28
2023/01/04 15:49:50;;;;;;;;;;;;;;;;;;5057053;28;19921;-27
2023/01/04 15:52:16;;;;;;;;;;;;;;;;;;5057539;28;20284;-24
2023/01/04 15:54:42;;;;;;;;;;;;;;;;;;5057211;28;20342;-27
2023/01/04 15:57:08;;;;;;;;;;;;;;;;;;5057439;28;19909;-25
2023/01/04 15:59:34;;;;;;;;;;;;;;;;;;5057154;28;20295;-28
2023/01/04 16:02:00;;;;;;;;;;;;;;;;;;5056728;28;19913;-29
2023/01/04 16:04:27;;;;;;;;;;;;;;;;;;5056702;28;19920;-27
2023/01/04 16:06:53;;;;;;;;;;;;;;;;;;5056928;28;19909;-26
2023/01/04 16:09:19;;;;;;;;;;;;;;;;;;5056559;28;20319;-25
2023/01/04 16:14:30;;;;;;;;;;;;;;;;;;5056475;28;20358;-26
2023/01/04 16:16:56;;;;;;;;;;;;;;;;;;5056496;28;19923;-29
2023/01/04 16:19:22;;;;;;;;;;;;;;;;;;5056240;28;20252;-25
2023/01/04 16:21:48;;;;;;;;;;;;;;;;;;5056182;28;19920;-34
2023/01/04 16:24:14;;;;;;;;;;;;;;;;;;5056416;28;20303;-27
2023/01/04 16:26:40;;;;;;;;;;;;;;;;;;5055303;28;19923;-26
2023/01/04 16:29:06;;;;;;;;;;;;;;;;;;5056041;28;20256;-29
2023/01/04 16:31:32;;;;;;;;;;;;;;;;;;5056374;28;20310;-26
2023/01/04 16:33:58;;;;;;;;;;;;;;;;;;5056176;28;19909;-27
2023/01/04 16:36:24;;;;;;;;;;;;;;;;;;5056012;28;19913;-27
2023/01/04 16:38:50;;;;;;;;;;;;;;;;;;5056263;28;20332;-26
2023/01/04 16:41:16;;;;;;;;;;;;;;;;;;5056277;28;19913;-24
2023/01/04 16:43:42;;;;;;;;;;;;;;;;;;5056589;28;19921;-30
2023/01/04 16:46:08;;;;;;;;;;;;;;;;;;5055815;28;20075;-31
2023/01/04 16:48:34;;;;;;;;;;;;;;;;;;5056400;28;20301;-27
2023/01/04 16:51:00;;;;;;;;;;;;;;;;;;5056231;28;19924;-24
2023/01/04 16:53:25;;;;;;;;;;;;;;;;;;5056154;28;19909;-30
2023/01/04 16:55:52;;;;;;;;;;;;;;;;;;5056248;28;19959;-32
2023/01/04 16:58:18;;;;;;;;;;;;;;;;;;5055565;28;19920;-27
2023/01/04 17:00:44;;;;;;;;;;;;;;;;;;5056337;28;20232;-30
2023/01/04 17:03:10;;;;;;;;;;;;;;;;;;5055914;28;19916;-28
2023/01/04 17:05:36;;;;;;;;;;;;;;;;;;5056416;28;20003;-27
2023/01/04 17:08:02;;;;;;;;;;;;;;;;;;5056145;28;19952;-28
2023/01/04 17:10:28;;;;;;;;;;;;;;;;;;5056174;28;19928;-31
2023/01/04 17:12:54;;;;;;;;;;;;;;;;;;5056055;28;19916;-32
2023/01/04 17:15:20;;;;;;;;;;;;;;;;;;5055927;28;19920;-28
2023/01/04 17:17:46;;;;;;;;;;;;;;;;;;5056084;28;19913;-28
2023/01/04 17:20:12;;;;;;;;;;;;;;;;;;5055851;28;20287;-28
2023/01/04 17:22:39;;;;;;;;;;;;;;;;;;5055795;28;19970;-25
2023/01/04 17:25:05;;;;;;;;;;;;;;;;;;5055541;28;19917;-30